createdAt,value
2019-03-29T00:00:41.480Z,93.90
2019-03-29T00:03:11.014Z,93.80
2019-03-29T00:05:40.377Z,93.80
2019-03-29T00:08:09.742Z,93.70
2019-03-29T00:10:39.124Z,93.70
2019-03-29T00:13:08.508Z,93.70
2019-03-29T00:15:37.891Z,93.70
2019-03-29T00:18:07.463Z,93.70
2019-03-29T00:20:37.490Z,93.70
2019-03-29T00:23:06.851Z,93.70
2019-03-29T00:25:36.227Z,93.80
2019-03-29T00:28:05.663Z,93.80
2019-03-29T00:30:35.048Z,93.80
2019-03-29T00:33:04.413Z,93.90
2019-03-29T00:35:34.151Z,93.90
2019-03-29T00:38:03.748Z,94.00
2019-03-29T00:40:33.207Z,94.20
2019-03-29T00:43:02.615Z,94.20
2019-03-29T00:45:31.995Z,94.70
2019-03-29T00:48:01.355Z,94.40
2019-03-29T00:50:30.733Z,94.30
2019-03-29T00:53:00.352Z,94.40
2019-03-29T00:55:29.745Z,94.40
2019-03-29T00:57:59.120Z,94.30
2019-03-29T01:00:31.360Z,94.30
2019-03-29T01:02:59.600Z,94.20
2019-03-29T01:05:28.975Z,94.20
2019-03-29T01:08:07.677Z,94.40
2019-03-29T01:10:29.472Z,94.30
2019-03-29T01:12:59.013Z,94.10
2019-03-29T01:15:28.422Z,94.30
2019-03-29T01:17:57.804Z,94.30
2019-03-29T01:20:27.350Z,94.30
2019-03-29T01:22:57.294Z,94.20
2019-03-29T01:25:27.280Z,94.20
2019-03-29T01:27:56.906Z,94.20
2019-03-29T01:30:26.578Z,94.30
2019-03-29T01:32:56.578Z,94.20
2019-03-29T01:35:26.603Z,94.30
2019-03-29T01:37:56.728Z,94.70
2019-03-29T01:40:26.725Z,94.20
2019-03-29T01:42:56.101Z,94.20
2019-03-29T01:45:25.769Z,94.10
2019-03-29T01:47:55.980Z,94.00
2019-03-29T01:50:25.470Z,94.00
2019-03-29T01:52:54.833Z,94.00
2019-03-29T01:55:24.207Z,93.90
2019-03-29T01:57:53.583Z,93.90
2019-03-29T02:00:34.406Z,93.90
2019-03-29T02:03:03.990Z,93.90
2019-03-29T02:05:33.359Z,93.90
2019-03-29T02:08:02.744Z,93.90
2019-03-29T02:10:32.115Z,94.00
2019-03-29T02:13:01.720Z,94.10
2019-03-29T02:15:31.316Z,94.10
2019-03-29T02:18:01.483Z,94.20
2019-03-29T02:20:31.617Z,94.30
2019-03-29T02:23:01.501Z,94.40
2019-03-29T02:25:31.548Z,94.40
2019-03-29T02:28:00.923Z,94.50
2019-03-29T02:30:32.066Z,94.60
2019-03-29T02:33:02.447Z,94.70
2019-03-29T02:35:32.404Z,94.80
2019-03-29T02:38:01.798Z,94.90
2019-03-29T02:40:31.158Z,95.10
2019-03-29T02:43:00.541Z,95.10
2019-03-29T02:45:30.781Z,95.10
2019-03-29T02:48:00.758Z,95.10
2019-03-29T02:50:30.108Z,95.20
2019-03-29T02:52:59.796Z,95.20
2019-03-29T02:55:29.178Z,95.30
2019-03-29T02:57:58.902Z,95.40
2019-03-29T03:00:28.265Z,95.40
2019-03-29T03:02:57.645Z,95.40
2019-03-29T03:05:27.020Z,95.30
2019-03-29T03:07:56.387Z,95.60
2019-03-29T03:10:25.764Z,95.20
2019-03-29T03:12:55.418Z,95.20
2019-03-29T03:15:24.789Z,95.20
2019-03-29T03:17:54.424Z,95.20
2019-03-29T03:20:23.803Z,95.10
2019-03-29T03:22:53.387Z,95.20
2019-03-29T03:25:22.712Z,95.30
2019-03-29T03:27:52.078Z,95.30
2019-03-29T03:30:21.809Z,95.30
2019-03-29T03:32:51.141Z,95.30
2019-03-29T03:35:20.531Z,95.30
2019-03-29T03:37:49.881Z,95.20
2019-03-29T03:40:19.694Z,95.30
2019-03-29T03:42:49.067Z,95.20
2019-03-29T03:45:18.602Z,95.10
2019-03-29T03:47:47.881Z,95.00
2019-03-29T03:50:38.931Z,94.90
2019-03-29T03:53:09.241Z,94.80
2019-03-29T03:55:40.308Z,94.70
2019-03-29T03:58:11.786Z,94.60
2019-03-29T04:00:55.111Z,94.70
2019-03-29T04:03:25.342Z,94.60
2019-03-29T04:05:55.363Z,94.50
2019-03-29T04:08:24.997Z,95.00
2019-03-29T04:10:54.369Z,94.80
2019-03-29T04:13:23.741Z,94.90
2019-03-29T04:15:53.121Z,94.90
2019-03-29T04:18:22.487Z,95.00
2019-03-29T04:20:51.860Z,95.00
2019-03-29T04:23:21.569Z,95.10
2019-03-29T04:25:51.255Z,95.20
2019-03-29T04:28:39.938Z,95.30
2019-03-29T04:31:09.349Z,95.40
2019-03-29T04:33:38.721Z,95.50
2019-03-29T04:36:08.101Z,95.50
2019-03-29T04:38:37.467Z,95.50
2019-03-29T04:41:06.856Z,95.60
2019-03-29T04:43:36.230Z,95.70
2019-03-29T04:46:05.674Z,95.80
2019-03-29T04:48:35.045Z,95.80
2019-03-29T04:51:04.754Z,95.80
2019-03-29T04:53:34.115Z,95.80
2019-03-29T04:56:03.738Z,95.80
2019-03-29T04:58:33.104Z,95.80
2019-03-29T05:01:02.480Z,95.80
2019-03-29T05:03:32.082Z,95.80
2019-03-29T05:06:01.500Z,95.80
2019-03-29T05:08:30.843Z,95.80
2019-03-29T05:11:00.479Z,95.90
2019-03-29T05:13:29.875Z,95.90
2019-03-29T05:15:59.243Z,95.90
2019-03-29T05:18:28.623Z,95.90
2019-03-29T05:20:58.508Z,95.90
2019-03-29T05:23:28.028Z,96.00
2019-03-29T05:25:57.395Z,96.00
2019-03-29T05:28:26.779Z,96.10
2019-03-29T05:30:56.393Z,96.20
2019-03-29T05:33:25.774Z,96.30
2019-03-29T05:35:55.182Z,96.50
2019-03-29T05:38:24.520Z,96.70
2019-03-29T05:40:54.191Z,96.80
2019-03-29T05:43:23.639Z,97.00
2019-03-29T05:45:53.275Z,97.40
2019-03-29T05:48:22.665Z,97.10
2019-03-29T05:50:52.038Z,96.90
2019-03-29T05:53:23.156Z,96.70
2019-03-29T05:55:52.622Z,96.60
2019-03-29T05:58:22.055Z,96.30
2019-03-29T06:00:51.429Z,96.00
2019-03-29T06:03:20.809Z,95.80
2019-03-29T06:05:50.518Z,95.60
2019-03-29T06:08:19.898Z,95.40
2019-03-29T06:10:49.846Z,95.20
2019-03-29T06:13:19.334Z,94.80
2019-03-29T06:15:48.713Z,94.50
2019-03-29T06:18:18.090Z,94.20
2019-03-29T06:20:47.502Z,93.90
2019-03-29T06:23:17.395Z,93.30
2019-03-29T06:25:46.754Z,92.90
2019-03-29T06:28:16.264Z,92.60
2019-03-29T06:30:47.706Z,92.20
2019-03-29T06:33:17.172Z,91.90
2019-03-29T06:35:50.714Z,91.40
2019-03-29T06:38:23.980Z,91.10
2019-03-29T06:41:02.638Z,90.90
2019-03-29T06:43:24.484Z,90.60
2019-03-29T06:45:53.870Z,90.30
2019-03-29T06:48:23.252Z,90.00
2019-03-29T06:50:53.504Z,89.50
2019-03-29T06:53:28.970Z,88.70
2019-03-29T06:55:59.440Z,88.40
2019-03-29T06:58:28.871Z,87.80
2019-03-29T07:00:58.252Z,87.60
2019-03-29T07:03:27.645Z,86.70
2019-03-29T07:05:57.027Z,86.30
2019-03-29T07:08:26.412Z,85.60
2019-03-29T07:10:55.804Z,85.40
2019-03-29T07:13:25.212Z,85.60
2019-03-29T07:15:54.606Z,85.30
2019-03-29T07:18:23.983Z,85.30
2019-03-29T07:20:53.383Z,85.60
2019-03-29T07:23:23.451Z,85.20
2019-03-29T07:25:56.112Z,85.40
2019-03-29T07:28:24.230Z,85.60
2019-03-29T07:30:53.617Z,85.90
2019-03-29T07:33:22.989Z,84.50
2019-03-29T07:35:52.381Z,84.40
2019-03-29T07:38:21.757Z,84.10
2019-03-29T07:40:51.147Z,83.80
2019-03-29T07:43:23.899Z,83.60
2019-03-29T07:45:51.744Z,83.70
2019-03-29T07:48:21.388Z,83.70
2019-03-29T07:50:50.806Z,83.40
2019-03-29T07:53:20.179Z,83.60
2019-03-29T07:55:49.568Z,83.90
2019-03-29T07:58:18.949Z,84.00
2019-03-29T08:00:48.607Z,83.70
2019-03-29T08:03:21.044Z,83.60
2019-03-29T08:05:49.130Z,83.10
2019-03-29T08:08:24.836Z,83.30
2019-03-29T08:10:53.186Z,83.60
2019-03-29T08:13:20.745Z,83.50
2019-03-29T08:15:50.147Z,84.00
2019-03-29T08:18:19.522Z,84.50
2019-03-29T08:20:49.240Z,84.50
2019-03-29T08:23:18.613Z,84.60
2019-03-29T08:25:48.020Z,84.40
2019-03-29T08:28:17.396Z,84.30
2019-03-29T08:30:46.783Z,84.30
2019-03-29T08:33:16.164Z,84.10
2019-03-29T08:35:45.559Z,83.30
2019-03-29T08:38:15.362Z,82.60
2019-03-29T08:40:45.373Z,82.90
2019-03-29T08:43:14.872Z,82.00
2019-03-29T08:45:44.265Z,81.20
2019-03-29T08:48:13.650Z,81.90
2019-03-29T08:50:43.143Z,82.10
2019-03-29T08:53:12.527Z,80.10
2019-03-29T08:55:45.947Z,79.90
2019-03-29T08:58:13.709Z,79.10
2019-03-29T09:00:43.103Z,79.20
2019-03-29T09:03:12.472Z,80.40
2019-03-29T09:05:42.504Z,80.10
2019-03-29T09:08:11.866Z,80.00
2019-03-29T09:10:41.257Z,80.00
2019-03-29T09:13:10.643Z,79.30
2019-03-29T09:15:40.025Z,79.50
2019-03-29T09:18:09.485Z,78.70
2019-03-29T09:20:38.868Z,78.80
2019-03-29T09:23:10.498Z,77.60
2019-03-29T09:25:40.626Z,78.40
2019-03-29T09:28:10.117Z,77.70
2019-03-29T09:30:39.498Z,78.10
2019-03-29T09:33:09.281Z,77.70
2019-03-29T09:35:38.643Z,76.50
2019-03-29T09:38:08.026Z,76.40
2019-03-29T09:40:37.415Z,76.50
2019-03-29T09:43:08.224Z,75.70
2019-03-29T09:45:41.168Z,74.80
2019-03-29T09:48:09.002Z,74.20
2019-03-29T09:50:38.388Z,73.90
2019-03-29T09:53:08.062Z,73.90
2019-03-29T09:55:37.445Z,73.70
2019-03-29T09:58:06.833Z,73.70
2019-03-29T10:00:36.576Z,73.00
2019-03-29T10:03:05.966Z,71.50
2019-03-29T10:05:35.339Z,72.10
2019-03-29T10:08:04.724Z,70.00
2019-03-29T10:10:34.613Z,69.70
2019-03-29T10:13:04.279Z,68.70
2019-03-29T10:15:33.898Z,70.20
2019-03-29T10:18:03.288Z,71.00
2019-03-29T10:20:32.915Z,71.00
2019-03-29T10:23:03.124Z,71.40
2019-03-29T10:25:32.508Z,71.50
2019-03-29T10:28:01.896Z,72.90
2019-03-29T10:30:39.701Z,72.30
2019-03-29T10:33:09.161Z,72.10
2019-03-29T10:35:50.882Z,72.40
2019-03-29T10:38:10.805Z,73.00
2019-03-29T10:40:40.250Z,72.60
2019-03-29T10:43:28.978Z,72.70
2019-03-29T10:45:58.608Z,71.10
2019-03-29T10:48:28.229Z,71.50
2019-03-29T10:50:57.617Z,71.70
2019-03-29T10:53:28.724Z,70.40
2019-03-29T10:55:58.132Z,71.00
2019-03-29T10:58:27.492Z,70.00
2019-03-29T11:00:56.885Z,69.30
2019-03-29T11:03:28.663Z,69.20
2019-03-29T11:05:57.866Z,68.30
2019-03-29T11:08:27.525Z,70.90
2019-03-29T11:10:56.895Z,71.30
2019-03-29T11:13:26.310Z,71.10
2019-03-29T11:15:55.994Z,71.10
2019-03-29T11:18:25.381Z,71.00
2019-03-29T11:20:54.768Z,71.80
2019-03-29T11:23:24.150Z,70.30
2019-03-29T11:25:53.535Z,70.80
2019-03-29T11:28:22.990Z,69.90
2019-03-29T11:30:52.361Z,69.70
2019-03-29T11:33:21.750Z,70.00
2019-03-29T11:35:51.130Z,70.30
2019-03-29T11:38:20.594Z,71.70
2019-03-29T11:40:49.982Z,71.70
2019-03-29T11:43:26.471Z,70.50
2019-03-29T11:45:50.466Z,70.90
2019-03-29T11:48:19.849Z,71.40
2019-03-29T11:50:49.217Z,70.60
2019-03-29T11:53:18.603Z,70.60
2019-03-29T11:55:48.273Z,70.80
2019-03-29T11:58:17.639Z,68.70
2019-03-29T12:00:47.013Z,69.00
2019-03-29T12:03:16.543Z,68.70
2019-03-29T12:05:46.181Z,69.50
2019-03-29T12:08:15.625Z,69.70
2019-03-29T12:10:45.248Z,71.00
2019-03-29T12:13:14.624Z,69.60
2019-03-29T12:15:44.074Z,69.80
2019-03-29T12:18:13.446Z,70.40
2019-03-29T12:21:02.164Z,71.20
2019-03-29T12:23:31.537Z,71.70
2019-03-29T12:26:00.933Z,73.20
2019-03-29T12:28:30.304Z,72.60
2019-03-29T12:30:59.709Z,72.20
2019-03-29T12:33:29.074Z,71.90
2019-03-29T12:35:58.456Z,71.60
2019-03-29T12:38:27.831Z,70.40
2019-03-29T12:40:57.217Z,71.00
2019-03-29T12:43:26.600Z,71.80
2019-03-29T12:45:55.985Z,71.20
2019-03-29T12:48:25.353Z,71.20
2019-03-29T12:50:54.747Z,71.60
2019-03-29T12:53:24.098Z,71.90
2019-03-29T12:55:53.474Z,70.00
2019-03-29T12:58:22.862Z,70.60
2019-03-29T13:00:52.255Z,69.80
2019-03-29T13:03:21.640Z,70.60
2019-03-29T13:05:51.171Z,71.50
2019-03-29T13:08:20.568Z,71.00
2019-03-29T13:10:50.193Z,70.40
2019-03-29T13:13:19.549Z,70.60
2019-03-29T13:15:48.992Z,70.40
2019-03-29T13:18:18.431Z,69.80
2019-03-29T13:20:47.810Z,70.60
2019-03-29T13:23:17.179Z,70.90
2019-03-29T13:25:46.559Z,69.50
2019-03-29T13:28:15.956Z,71.00
2019-03-29T13:30:45.394Z,69.80
2019-03-29T13:33:15.785Z,70.00
2019-03-29T13:35:45.250Z,69.30
2019-03-29T13:38:14.623Z,69.80
2019-03-29T13:40:43.999Z,70.90
2019-03-29T13:43:13.373Z,69.60
2019-03-29T13:45:42.744Z,69.80
2019-03-29T13:48:12.117Z,70.30
2019-03-29T13:50:41.493Z,71.10
2019-03-29T13:53:11.146Z,71.00
2019-03-29T13:55:40.862Z,69.50
2019-03-29T13:58:10.236Z,69.80
2019-03-29T14:00:39.963Z,70.70
2019-03-29T14:03:09.323Z,71.20
2019-03-29T14:05:38.701Z,70.90
2019-03-29T14:08:08.369Z,70.80
2019-03-29T14:10:37.744Z,71.50
2019-03-29T14:13:07.121Z,71.30
2019-03-29T14:15:36.504Z,72.30
2019-03-29T14:18:05.948Z,70.50
2019-03-29T14:20:35.569Z,70.50
2019-03-29T14:23:05.013Z,71.20
2019-03-29T14:25:34.467Z,71.50
2019-03-29T14:28:03.842Z,69.70
2019-03-29T14:30:33.502Z,70.10
2019-03-29T14:33:02.940Z,70.50
2019-03-29T14:35:32.316Z,71.00
2019-03-29T14:38:01.714Z,71.40
2019-03-29T14:40:31.059Z,72.10
2019-03-29T14:43:00.461Z,72.70
2019-03-29T14:45:30.111Z,71.10
2019-03-29T14:47:59.823Z,70.90
2019-03-29T14:50:29.276Z,70.90
2019-03-29T14:52:58.655Z,70.50
2019-03-29T14:55:28.028Z,72.10
2019-03-29T14:57:57.405Z,71.70
2019-03-29T15:00:42.350Z,71.40
2019-03-29T15:03:12.242Z,71.10
2019-03-29T15:05:41.609Z,71.20
2019-03-29T15:08:10.989Z,71.40
2019-03-29T15:10:40.372Z,72.50
2019-03-29T15:13:09.817Z,72.10
2019-03-29T15:15:40.016Z,72.80
2019-03-29T15:18:09.467Z,71.70
2019-03-29T15:20:52.129Z,71.50
2019-03-29T15:23:10.032Z,72.10
2019-03-29T15:25:40.694Z,71.80
2019-03-29T15:28:10.270Z,71.40
2019-03-29T15:30:39.638Z,72.50
2019-03-29T15:33:09.016Z,71.70
2019-03-29T15:35:38.623Z,72.60
2019-03-29T15:38:08.005Z,72.00
2019-03-29T15:40:37.385Z,71.30
2019-03-29T15:43:06.760Z,71.40
2019-03-29T15:45:36.375Z,71.80
2019-03-29T15:48:05.920Z,70.80
2019-03-29T15:50:35.295Z,71.70
2019-03-29T15:53:04.752Z,71.80
2019-03-29T15:55:34.128Z,71.20
2019-03-29T15:58:04.642Z,72.40
2019-03-29T16:00:34.722Z,72.40
2019-03-29T16:03:04.165Z,72.10
2019-03-29T16:05:33.529Z,72.40
2019-03-29T16:08:02.916Z,71.90
2019-03-29T16:10:32.286Z,71.60
2019-03-29T16:13:01.664Z,71.80
2019-03-29T16:15:36.507Z,73.40
2019-03-29T16:18:02.381Z,72.20
2019-03-29T16:20:31.999Z,72.20
2019-03-29T16:23:01.381Z,72.00
2019-03-29T16:25:30.768Z,72.10
2019-03-29T16:28:00.146Z,72.50
2019-03-29T16:30:29.755Z,72.30
2019-03-29T16:32:59.143Z,72.50
2019-03-29T16:35:28.641Z,72.60
2019-03-29T16:37:58.031Z,72.20
2019-03-29T16:40:30.700Z,72.80
2019-03-29T16:42:58.504Z,72.50
2019-03-29T16:45:27.878Z,72.40
2019-03-29T16:47:57.271Z,72.50
2019-03-29T16:50:26.636Z,72.50
2019-03-29T16:52:56.023Z,72.50
2019-03-29T16:55:25.393Z,72.30
2019-03-29T16:57:55.028Z,72.60
2019-03-29T17:00:24.415Z,72.60
2019-03-29T17:02:54.039Z,72.90
2019-03-29T17:05:23.410Z,73.50
2019-03-29T17:07:53.230Z,73.40
2019-03-29T17:10:22.682Z,72.80
2019-03-29T17:12:52.443Z,73.30
2019-03-29T17:15:21.925Z,73.50
2019-03-29T17:17:51.577Z,73.10
2019-03-29T17:20:20.958Z,73.60
2019-03-29T17:22:50.399Z,73.90
2019-03-29T17:25:19.795Z,74.00
2019-03-29T17:27:51.989Z,73.80
2019-03-29T17:30:40.691Z,74.30
2019-03-29T17:33:10.064Z,73.70
2019-03-29T17:35:39.433Z,74.20
2019-03-29T17:38:08.808Z,74.30
2019-03-29T17:40:38.189Z,74.50
2019-03-29T17:43:07.628Z,74.70
2019-03-29T17:45:37.017Z,75.00
2019-03-29T17:48:06.929Z,75.20
2019-03-29T17:50:36.312Z,75.50
2019-03-29T17:53:06.815Z,75.40
2019-03-29T17:55:36.197Z,75.90
2019-03-29T17:58:05.630Z,75.50
2019-03-29T18:00:35.011Z,75.80
2019-03-29T18:03:04.385Z,75.70
2019-03-29T18:05:33.763Z,76.10
2019-03-29T18:08:03.213Z,76.20
2019-03-29T18:10:32.585Z,76.40
2019-03-29T18:13:01.961Z,76.30
2019-03-29T18:15:31.344Z,76.20
2019-03-29T18:18:00.717Z,76.10
2019-03-29T18:20:30.273Z,76.20
2019-03-29T18:22:59.883Z,76.00
2019-03-29T18:25:29.591Z,76.00
2019-03-29T18:27:58.958Z,75.70
2019-03-29T18:30:40.430Z,75.40
2019-03-29T18:33:09.949Z,75.50
2019-03-29T18:35:39.673Z,75.50
2019-03-29T18:38:09.045Z,75.60
2019-03-29T18:40:38.500Z,75.50
2019-03-29T18:43:07.878Z,75.30
2019-03-29T18:45:37.339Z,75.50
2019-03-29T18:48:06.799Z,75.60
2019-03-29T18:50:36.183Z,75.60
2019-03-29T18:53:05.751Z,75.80
2019-03-29T18:55:35.143Z,75.60
2019-03-29T18:58:06.040Z,75.60
2019-03-29T19:00:36.220Z,75.90
2019-03-29T19:03:05.663Z,75.90
2019-03-29T19:05:35.540Z,76.10
2019-03-29T19:08:04.912Z,76.20
2019-03-29T19:10:34.367Z,76.20
2019-03-29T19:13:03.807Z,76.40
2019-03-29T19:15:33.507Z,76.60
2019-03-29T19:18:02.894Z,76.70
2019-03-29T19:20:51.862Z,76.80
2019-03-29T19:23:21.236Z,77.00
2019-03-29T19:25:50.730Z,77.10
2019-03-29T19:28:20.454Z,76.90
2019-03-29T19:30:50.776Z,77.20
2019-03-29T19:33:20.738Z,77.40
2019-03-29T19:35:51.128Z,77.70
2019-03-29T19:38:21.225Z,78.00
2019-03-29T19:40:50.599Z,78.40
2019-03-29T19:43:20.292Z,78.50
2019-03-29T19:45:49.643Z,78.90
2019-03-29T19:48:19.021Z,79.10
2019-03-29T19:50:48.395Z,79.30
2019-03-29T19:53:17.808Z,79.50
2019-03-29T19:55:47.216Z,79.70
2019-03-29T19:58:16.607Z,80.00
2019-03-29T20:00:46.071Z,80.20
2019-03-29T20:03:15.560Z,80.50
2019-03-29T20:05:44.915Z,80.60
2019-03-29T20:08:14.361Z,80.70
2019-03-29T20:10:44.008Z,80.90
2019-03-29T20:13:13.386Z,81.00
2019-03-29T20:15:42.765Z,81.20
2019-03-29T20:18:12.146Z,81.30
2019-03-29T20:20:41.511Z,81.20
2019-03-29T20:23:10.916Z,81.50
2019-03-29T20:25:40.286Z,81.50
2019-03-29T20:28:09.664Z,81.40
2019-03-29T20:30:39.273Z,81.50
2019-03-29T20:33:08.659Z,81.70
2019-03-29T20:35:38.023Z,81.80
2019-03-29T20:38:07.406Z,81.90
2019-03-29T20:40:36.774Z,82.10
2019-03-29T20:43:06.454Z,82.30
2019-03-29T20:45:36.043Z,82.50
2019-03-29T20:48:05.850Z,82.60
2019-03-29T20:50:35.218Z,82.70
2019-03-29T20:53:04.608Z,82.90
2019-03-29T20:55:34.226Z,83.10
2019-03-29T20:58:03.674Z,83.50
2019-03-29T21:00:33.044Z,83.70
2019-03-29T21:03:02.477Z,84.00
2019-03-29T21:05:31.915Z,83.80
2019-03-29T21:08:01.294Z,84.10
2019-03-29T21:10:30.666Z,83.80
2019-03-29T21:13:00.072Z,83.90
2019-03-29T21:15:29.473Z,84.00
2019-03-29T21:17:58.864Z,84.00
2019-03-29T21:20:28.317Z,84.00
2019-03-29T21:22:57.985Z,84.10
2019-03-29T21:25:28.377Z,84.10
2019-03-29T21:27:58.399Z,84.40
2019-03-29T21:30:28.472Z,84.60
2019-03-29T21:32:58.531Z,84.40
2019-03-29T21:35:27.894Z,84.70
2019-03-29T21:37:57.570Z,84.60
2019-03-29T21:40:27.182Z,84.50
2019-03-29T21:42:57.294Z,84.60
2019-03-29T21:45:29.114Z,84.60
2019-03-29T21:48:08.860Z,84.80
2019-03-29T21:50:29.226Z,84.80
2019-03-29T21:52:58.600Z,84.80
2019-03-29T21:55:27.973Z,85.00
2019-03-29T21:57:57.344Z,85.30
2019-03-29T22:00:26.719Z,85.50
2019-03-29T22:02:56.091Z,85.50
2019-03-29T22:05:25.482Z,85.60
2019-03-29T22:07:55.105Z,86.00
2019-03-29T22:10:24.486Z,86.00
2019-03-29T22:12:54.109Z,86.20
2019-03-29T22:15:23.496Z,86.50
2019-03-29T22:17:52.859Z,86.60
2019-03-29T22:20:22.252Z,86.50
2019-03-29T22:22:51.625Z,86.50
2019-03-29T22:25:20.997Z,86.30
2019-03-29T22:27:50.438Z,86.50
2019-03-29T22:30:20.023Z,86.50
2019-03-29T22:32:49.393Z,86.40
2019-03-29T22:35:18.766Z,86.60
2019-03-29T22:37:48.137Z,86.60
2019-03-29T22:40:17.512Z,86.80
2019-03-29T22:42:47.273Z,86.80
2019-03-29T22:45:18.683Z,87.50
2019-03-29T22:47:48.285Z,86.60
2019-03-29T22:50:18.173Z,86.70
2019-03-29T22:52:47.807Z,86.90
2019-03-29T22:55:17.180Z,86.80
2019-03-29T22:57:46.542Z,86.80
2019-03-29T23:00:44.394Z,86.90
2019-03-29T23:03:13.825Z,87.00
2019-03-29T23:05:43.210Z,87.30
2019-03-29T23:08:12.575Z,87.50
2019-03-29T23:10:41.946Z,87.40
2019-03-29T23:13:11.318Z,87.60
2019-03-29T23:15:40.693Z,87.50
2019-03-29T23:18:10.062Z,87.40
2019-03-29T23:20:39.433Z,87.60
2019-03-29T23:23:08.795Z,87.40
2019-03-29T23:25:38.251Z,87.40
2019-03-29T23:28:07.622Z,87.20
2019-03-29T23:30:37.006Z,87.20
2019-03-29T23:33:06.364Z,87.20
2019-03-29T23:35:35.740Z,87.00
2019-03-29T23:38:05.115Z,86.90
2019-03-29T23:40:34.493Z,86.90
2019-03-29T23:43:03.854Z,87.10
2019-03-29T23:45:33.232Z,86.90
2019-03-29T23:48:02.601Z,87.10
2019-03-29T23:50:32.316Z,87.10
2019-03-29T23:53:01.686Z,87.30
2019-03-29T23:55:31.324Z,87.40
2019-03-29T23:58:00.687Z,87.50
